createdAt,value
2022-10-18T00:00:06.662Z,99857.00
2022-10-18T00:02:33.656Z,99862.80
2022-10-18T00:05:00.383Z,99858.80
2022-10-18T00:07:26.827Z,99855.00
2022-10-18T00:09:53.243Z,99858.80
2022-10-18T00:12:19.823Z,99855.80
2022-10-18T00:14:50.836Z,99852.20
2022-10-18T00:17:17.455Z,99852.60
2022-10-18T00:19:44.237Z,99854.20
2022-10-18T00:22:10.645Z,99851.60
2022-10-18T00:24:37.140Z,99849.00
2022-10-18T00:27:03.702Z,99846.80
2022-10-18T00:29:30.119Z,99849.60
2022-10-18T00:31:56.564Z,99846.00
2022-10-18T00:34:23.147Z,99846.20
2022-10-18T00:36:49.530Z,99853.20
2022-10-18T00:39:20.032Z,99849.60
2022-10-18T00:41:47.234Z,99846.40
2022-10-18T00:44:13.609Z,99843.40
2022-10-18T00:46:44.202Z,99844.80
2022-10-18T00:49:15.573Z,99851.60
2022-10-18T00:52:02.415Z,99849.80
2022-10-18T00:54:32.502Z,99848.40
2022-10-18T00:56:59.542Z,99849.40
2022-10-18T00:59:26.698Z,99842.40
2022-10-18T01:01:53.616Z,99841.20
2022-10-18T01:04:22.129Z,99839.00
2022-10-18T01:07:25.391Z,99836.40
2022-10-18T01:10:21.217Z,99836.40
2022-10-18T01:13:23.395Z,99837.60
2022-10-18T01:16:23.439Z,99831.00
2022-10-18T01:19:01.654Z,99826.40
2022-10-18T01:21:50.544Z,99825.00
2022-10-18T01:25:06.028Z,99826.20
2022-10-18T01:27:50.383Z,99821.40
2022-10-18T01:30:35.884Z,99818.60
2022-10-18T01:33:26.974Z,99814.80
2022-10-18T01:36:06.303Z,99812.40
2022-10-18T01:38:36.078Z,99808.60
2022-10-18T01:41:06.473Z,99813.80
2022-10-18T01:43:35.466Z,99815.80
2022-10-18T01:46:04.592Z,99811.40
2022-10-18T01:48:31.909Z,99809.80
2022-10-18T01:50:58.407Z,99809.60
2022-10-18T01:53:32.632Z,99820.20
2022-10-18T01:56:16.000Z,99811.40
2022-10-18T01:58:56.161Z,99804.40
2022-10-18T02:01:41.125Z,99796.80
2022-10-18T02:04:31.817Z,99785.60
2022-10-18T02:07:29.390Z,99788.40
2022-10-18T02:12:44.125Z,99782.80
2022-10-18T02:15:19.447Z,99781.20
2022-10-18T02:17:47.070Z,99776.80
2022-10-18T02:20:18.793Z,99782.20
2022-10-18T02:22:49.186Z,99782.60
2022-10-18T02:25:25.006Z,99779.60
2022-10-18T02:27:52.383Z,99785.60
2022-10-18T02:30:25.589Z,99781.20
2022-10-18T02:33:09.668Z,99785.80
2022-10-18T02:35:44.534Z,99785.00
2022-10-18T02:38:14.205Z,99785.80
2022-10-18T02:40:40.761Z,99789.60
2022-10-18T02:43:07.384Z,99794.40
2022-10-18T02:45:34.037Z,99791.80
2022-10-18T02:48:00.449Z,99791.80
2022-10-18T02:50:26.974Z,99793.20
2022-10-18T02:52:53.377Z,99792.80
2022-10-18T02:55:20.049Z,99793.20
2022-10-18T02:57:46.530Z,99795.00
2022-10-18T03:00:13.965Z,99795.80
2022-10-18T03:02:40.433Z,99795.40
2022-10-18T03:05:07.182Z,99796.40
2022-10-18T03:07:33.847Z,99804.40
2022-10-18T03:10:00.396Z,99799.60
2022-10-18T03:12:26.826Z,99796.80
2022-10-18T03:14:53.287Z,99798.60
2022-10-18T03:17:19.717Z,99798.40
2022-10-18T03:19:46.170Z,99794.20
2022-10-18T03:22:12.558Z,99799.40
2022-10-18T03:24:38.960Z,99806.00
2022-10-18T03:27:05.429Z,99806.20
2022-10-18T03:29:31.957Z,99801.20
2022-10-18T03:31:58.353Z,99800.60
2022-10-18T03:34:24.854Z,99800.80
2022-10-18T03:36:51.301Z,99798.40
2022-10-18T03:39:17.799Z,99800.20
2022-10-18T03:41:44.205Z,99801.60
2022-10-18T03:44:10.620Z,99800.40
2022-10-18T03:46:37.067Z,99795.20
2022-10-18T03:49:03.704Z,99798.80
2022-10-18T03:51:30.131Z,99797.20
2022-10-18T03:53:56.510Z,99798.60
2022-10-18T03:56:22.955Z,99800.00
2022-10-18T03:58:49.321Z,99802.60
2022-10-18T04:01:15.848Z,99800.40
2022-10-18T04:03:42.262Z,99802.20
2022-10-18T04:06:09.943Z,99800.60
2022-10-18T04:08:36.473Z,99799.60
2022-10-18T04:11:10.837Z,99796.20
2022-10-18T04:13:37.564Z,99798.20
2022-10-18T04:16:04.096Z,99796.80
2022-10-18T04:18:30.654Z,99792.20
2022-10-18T04:20:57.157Z,99794.40
2022-10-18T04:23:23.825Z,99795.80
2022-10-18T04:25:50.809Z,99792.40
2022-10-18T04:28:17.284Z,99795.60
2022-10-18T04:30:43.714Z,99787.20
2022-10-18T04:33:10.072Z,99785.00
2022-10-18T04:35:36.668Z,99790.20
2022-10-18T04:38:03.058Z,99794.40
2022-10-18T04:40:29.420Z,99790.00
2022-10-18T04:42:55.845Z,99787.20
2022-10-18T04:45:22.243Z,99788.20
2022-10-18T04:47:48.677Z,99789.80
2022-10-18T04:50:15.170Z,99789.40
2022-10-18T04:52:41.710Z,99784.80
2022-10-18T04:55:08.763Z,99786.80
2022-10-18T04:57:35.248Z,99787.20
2022-10-18T05:00:02.101Z,99783.40
2022-10-18T05:02:28.560Z,99789.40
2022-10-18T05:04:55.107Z,99792.80
2022-10-18T05:07:21.480Z,99790.80
2022-10-18T05:09:47.991Z,99799.20
2022-10-18T05:12:14.454Z,99789.20
2022-10-18T05:14:40.891Z,99788.20
2022-10-18T05:17:07.286Z,99793.60
2022-10-18T05:19:33.894Z,99788.60
2022-10-18T05:22:00.294Z,99792.60
2022-10-18T05:24:27.819Z,99794.00
2022-10-18T05:26:54.474Z,99788.40
2022-10-18T05:29:21.164Z,99788.40
2022-10-18T05:31:49.321Z,99789.60
2022-10-18T05:34:16.830Z,99788.00
2022-10-18T05:36:43.936Z,99786.60
2022-10-18T05:39:10.403Z,99792.20
2022-10-18T05:41:36.918Z,99788.60
2022-10-18T05:44:06.124Z,99787.60
2022-10-18T05:46:33.009Z,99784.20
2022-10-18T05:48:59.576Z,99788.40
2022-10-18T05:51:26.060Z,99787.20
2022-10-18T05:53:53.082Z,99789.60
2022-10-18T05:56:19.546Z,99786.80
2022-10-18T05:58:51.609Z,99793.20
2022-10-18T06:01:18.841Z,99793.80
2022-10-18T06:03:45.336Z,99800.40
2022-10-18T06:06:13.808Z,99799.00
2022-10-18T06:08:42.910Z,99796.00
2022-10-18T06:11:14.422Z,99794.80
2022-10-18T06:13:49.962Z,99793.40
2022-10-18T06:16:20.422Z,99794.00
2022-10-18T06:18:53.151Z,99798.20
2022-10-18T06:21:21.059Z,99797.80
2022-10-18T06:23:52.840Z,99800.60
2022-10-18T06:26:19.957Z,99799.60
2022-10-18T06:28:46.434Z,99799.40
2022-10-18T06:31:14.391Z,99796.00
2022-10-18T06:33:41.573Z,99798.20
2022-10-18T06:36:12.799Z,99796.00
2022-10-18T06:38:39.712Z,99799.20
2022-10-18T06:41:07.539Z,99811.00
2022-10-18T06:43:34.452Z,99807.00
2022-10-18T06:46:05.062Z,99810.80
2022-10-18T06:48:32.173Z,99807.00
2022-10-18T06:51:01.959Z,99801.60
2022-10-18T06:53:32.696Z,99804.00
2022-10-18T06:56:05.629Z,99801.40
2022-10-18T06:58:33.374Z,99806.40
2022-10-18T07:01:00.000Z,99805.40
2022-10-18T07:03:27.269Z,99802.60
2022-10-18T07:05:53.724Z,99802.60
2022-10-18T07:08:20.106Z,99797.00
2022-10-18T07:10:53.674Z,99797.60
2022-10-18T07:13:32.060Z,99802.40
2022-10-18T07:16:20.786Z,99798.80
2022-10-18T07:18:50.824Z,99796.40
2022-10-18T07:21:22.132Z,99795.80
2022-10-18T07:23:49.642Z,99801.80
2022-10-18T07:26:21.562Z,99796.60
2022-10-18T07:28:54.541Z,99794.40
2022-10-18T07:31:22.774Z,99793.60
2022-10-18T07:33:49.354Z,99791.00
2022-10-18T07:36:16.147Z,99792.60
2022-10-18T07:38:43.081Z,99786.00
2022-10-18T07:41:13.315Z,99786.60
2022-10-18T07:43:51.168Z,99789.00
2022-10-18T07:46:19.554Z,99790.00
2022-10-18T07:48:46.055Z,99791.00
2022-10-18T07:51:13.928Z,99788.00
2022-10-18T07:53:40.804Z,99788.20
2022-10-18T07:56:17.245Z,99788.00
2022-10-18T07:58:44.956Z,99784.00
2022-10-18T08:01:12.990Z,99784.20
2022-10-18T08:03:41.698Z,99776.40
2022-10-18T08:06:11.248Z,99776.80
2022-10-18T08:08:40.456Z,99772.40
2022-10-18T08:11:12.185Z,99767.00
2022-10-18T08:13:39.116Z,99761.80
2022-10-18T08:16:13.210Z,99758.60
2022-10-18T08:18:40.463Z,99756.80
2022-10-18T08:21:09.957Z,99754.00
2022-10-18T08:23:37.611Z,99751.20
2022-10-18T08:26:08.674Z,99750.60
2022-10-18T08:28:38.664Z,99756.60
2022-10-18T08:31:12.889Z,99754.20
2022-10-18T08:33:40.416Z,99757.20
2022-10-18T08:36:10.405Z,99751.20
2022-10-18T08:38:39.633Z,99743.80
2022-10-18T08:41:25.885Z,99756.00
2022-10-18T08:44:14.353Z,99749.40
2022-10-18T08:46:51.076Z,99746.40
2022-10-18T08:49:38.336Z,99747.80
2022-10-18T08:52:19.170Z,99749.60
2022-10-18T08:55:12.457Z,99744.80
2022-10-18T08:57:38.837Z,99747.40
2022-10-18T09:00:24.004Z,99749.40
2022-10-18T09:03:34.320Z,99747.40
2022-10-18T09:06:36.127Z,99744.60
2022-10-18T09:09:20.276Z,99742.40
2022-10-18T09:12:03.806Z,99744.00
2022-10-18T09:14:46.007Z,99742.20
2022-10-18T09:17:32.594Z,99739.00
2022-10-18T09:20:26.232Z,99748.00
2022-10-18T09:22:59.009Z,99745.40
2022-10-18T09:25:42.909Z,99743.00
2022-10-18T09:28:22.722Z,99752.60
2022-10-18T09:31:11.226Z,99747.60
2022-10-18T09:33:53.991Z,99743.20
2022-10-18T09:36:25.881Z,99737.00
2022-10-18T09:39:02.198Z,99734.60
2022-10-18T09:41:49.649Z,99733.20
2022-10-18T09:44:25.145Z,99728.40
2022-10-18T09:47:00.417Z,99724.20
2022-10-18T09:49:42.375Z,99723.80
2022-10-18T09:52:19.361Z,99720.20
2022-10-18T09:54:58.143Z,99719.00
2022-10-18T09:57:37.532Z,99709.60
2022-10-18T10:00:14.091Z,99701.80
2022-10-18T10:02:40.595Z,99703.20
2022-10-18T10:05:14.248Z,99703.40
2022-10-18T10:07:48.377Z,99702.80
2022-10-18T10:10:26.795Z,99694.00
2022-10-18T10:13:23.015Z,99691.60
2022-10-18T10:16:00.473Z,99687.60
2022-10-18T10:18:54.415Z,99685.20
2022-10-18T10:21:22.345Z,99681.20
2022-10-18T10:23:58.533Z,99672.80
2022-10-18T10:26:31.977Z,99666.60
2022-10-18T10:28:59.037Z,99663.00
2022-10-18T10:31:25.440Z,99661.20
2022-10-18T10:34:29.088Z,99655.20
2022-10-18T10:36:55.501Z,99657.60
2022-10-18T10:39:24.878Z,99654.40
2022-10-18T10:41:58.926Z,99651.40
2022-10-18T10:44:31.412Z,99650.20
2022-10-18T10:46:59.189Z,99649.20
2022-10-18T10:49:40.382Z,99639.80
2022-10-18T10:52:26.786Z,99636.80
2022-10-18T10:55:05.887Z,99631.40
2022-10-18T10:57:47.236Z,99624.80
2022-10-18T11:00:37.547Z,99621.80
2022-10-18T11:03:28.455Z,99618.40
2022-10-18T11:05:58.793Z,99619.00
2022-10-18T11:08:38.129Z,99612.60
2022-10-18T11:11:26.822Z,99609.00
2022-10-18T11:17:35.861Z,99601.60
2022-10-18T11:20:17.202Z,99599.00
2022-10-18T11:23:00.787Z,99596.40
2022-10-18T11:26:03.451Z,99598.20
2022-10-18T11:28:36.069Z,99592.00
2022-10-18T11:31:32.751Z,99582.00
2022-10-18T11:34:31.271Z,99575.80
2022-10-18T11:37:28.642Z,99570.40
2022-10-18T11:40:43.284Z,99562.80
2022-10-18T11:43:30.086Z,99559.40
2022-10-18T11:46:12.248Z,99556.20
2022-10-18T11:49:01.893Z,99549.20
2022-10-18T11:52:14.615Z,99538.00
2022-10-18T11:55:05.044Z,99527.80
2022-10-18T11:58:16.325Z,99523.40
2022-10-18T12:00:53.385Z,99517.80
2022-10-18T12:03:35.250Z,99517.80
2022-10-18T12:06:11.980Z,99518.80
2022-10-18T12:08:55.663Z,99514.20
2022-10-18T12:11:47.414Z,99507.40
2022-10-18T12:14:28.265Z,99503.80
2022-10-18T12:17:35.863Z,99498.00
2022-10-18T12:19:52.634Z,99499.20
2022-10-18T12:22:30.060Z,99496.00
2022-10-18T12:24:56.773Z,99494.40
2022-10-18T12:27:39.621Z,99498.20
2022-10-18T12:30:31.784Z,99494.00
2022-10-18T12:33:28.784Z,99493.60
2022-10-18T12:36:04.695Z,99490.00
2022-10-18T12:38:36.574Z,99485.60
2022-10-18T12:41:05.428Z,99482.80
2022-10-18T12:43:36.899Z,99477.80
2022-10-18T12:46:13.502Z,99474.20
2022-10-18T12:48:50.422Z,99470.00
2022-10-18T12:51:20.864Z,99460.60
2022-10-18T12:54:09.111Z,99460.80
2022-10-18T12:56:42.505Z,99454.60
2022-10-18T12:59:15.475Z,99447.40
2022-10-18T13:01:50.870Z,99447.20
2022-10-18T13:04:29.731Z,99448.60
2022-10-18T13:07:05.054Z,99443.20
2022-10-18T13:09:37.865Z,99433.20
2022-10-18T13:12:10.308Z,99431.80
2022-10-18T13:15:13.472Z,99423.40
2022-10-18T13:18:00.377Z,99421.40
2022-10-18T13:20:42.778Z,99422.20
2022-10-18T13:23:41.515Z,99419.20
2022-10-18T13:26:27.726Z,99411.60
2022-10-18T13:29:34.587Z,99414.80
2022-10-18T13:32:36.869Z,99406.40
2022-10-18T13:35:03.592Z,99403.60
2022-10-18T13:37:30.724Z,99399.80
2022-10-18T13:40:25.128Z,99394.40
2022-10-18T13:42:51.546Z,99393.20
2022-10-18T13:45:33.204Z,99397.80
2022-10-18T13:48:30.539Z,99396.40
2022-10-18T13:51:25.139Z,99394.80
2022-10-18T13:54:10.122Z,99397.40
2022-10-18T13:57:11.124Z,99400.00
2022-10-18T14:00:27.331Z,99402.20
2022-10-18T14:03:56.414Z,99403.60
2022-10-18T14:06:25.230Z,99391.60
2022-10-18T14:12:22.851Z,99369.20
2022-10-18T14:15:05.189Z,99365.60
2022-10-18T14:17:49.606Z,99351.40
2022-10-18T14:20:48.991Z,99336.60
2022-10-18T14:23:31.275Z,99340.60
2022-10-18T14:26:16.256Z,99345.80
2022-10-18T14:29:00.291Z,99345.60
2022-10-18T14:31:27.999Z,99338.80
2022-10-18T14:33:58.759Z,99339.40
2022-10-18T14:36:34.456Z,99334.60
2022-10-18T14:39:05.105Z,99333.60
2022-10-18T14:41:49.188Z,99335.40
2022-10-18T14:44:15.586Z,99334.20
2022-10-18T14:46:59.407Z,99336.40
2022-10-18T14:49:26.887Z,99330.40
2022-10-18T14:51:57.372Z,99329.40
2022-10-18T14:54:32.383Z,99333.00
2022-10-18T14:57:01.914Z,99327.80
2022-10-18T14:59:32.497Z,99330.60
2022-10-18T15:02:05.114Z,99329.60
2022-10-18T15:04:34.401Z,99334.80
2022-10-18T15:07:05.026Z,99341.60
2022-10-18T15:09:34.968Z,99342.60
2022-10-18T15:12:05.722Z,99346.20
2022-10-18T15:14:33.781Z,99343.60
2022-10-18T15:17:11.573Z,99349.00
2022-10-18T15:19:42.844Z,99356.60
2022-10-18T15:25:05.618Z,99363.20
2022-10-18T15:27:38.090Z,99364.20
2022-10-18T15:30:40.989Z,99364.80
2022-10-18T15:33:11.529Z,99373.80
2022-10-18T15:35:39.685Z,99385.00
2022-10-18T15:38:32.072Z,99388.20
2022-10-18T15:40:58.757Z,99398.80
2022-10-18T15:43:28.070Z,99416.80
2022-10-18T15:46:03.329Z,99418.20
2022-10-18T15:48:42.010Z,99427.60
2022-10-18T15:51:43.838Z,99434.00
2022-10-18T15:54:18.965Z,99436.80
2022-10-18T15:56:46.018Z,99445.40
2022-10-18T15:59:30.837Z,99456.40
2022-10-18T16:01:57.617Z,99453.80
2022-10-18T16:04:31.301Z,99465.00
2022-10-18T16:06:59.213Z,99464.00
2022-10-18T16:09:28.880Z,99476.40
2022-10-18T16:11:57.453Z,99469.80
2022-10-18T16:14:25.972Z,99468.80
2022-10-18T16:17:00.721Z,99475.00
2022-10-18T16:19:27.226Z,99477.40
2022-10-18T16:21:55.209Z,99470.00
2022-10-18T16:24:22.938Z,99485.80
2022-10-18T16:26:50.001Z,99482.20
2022-10-18T16:29:25.792Z,99476.60
2022-10-18T16:31:55.425Z,99486.00
2022-10-18T16:34:21.826Z,99493.60
2022-10-18T16:36:48.212Z,99493.20
2022-10-18T16:39:17.821Z,99493.20
2022-10-18T16:41:45.355Z,99492.20
2022-10-18T16:44:12.225Z,99503.60
2022-10-18T16:46:39.184Z,99506.60
2022-10-18T16:49:06.618Z,99505.80
2022-10-18T16:51:33.681Z,99510.00
2022-10-18T16:54:00.085Z,99513.80
2022-10-18T16:56:32.115Z,99513.80
2022-10-18T16:59:00.233Z,99525.80
2022-10-18T17:01:27.329Z,99527.20
2022-10-18T17:03:55.171Z,99542.00
2022-10-18T17:06:29.498Z,99553.40
2022-10-18T17:08:57.797Z,99549.60
2022-10-18T17:11:28.301Z,99545.00
2022-10-18T17:13:55.494Z,99551.60
2022-10-18T17:19:05.562Z,99552.80
2022-10-18T17:21:33.836Z,99559.40
2022-10-18T17:24:05.782Z,99573.00
2022-10-18T17:26:33.775Z,99565.00
2022-10-18T17:29:06.965Z,99565.80
2022-10-18T17:31:35.607Z,99567.20
2022-10-18T17:34:02.655Z,99552.20
2022-10-18T17:36:31.697Z,99549.00
2022-10-18T17:38:58.929Z,99549.80
2022-10-18T17:41:25.845Z,99545.20
2022-10-18T17:43:54.537Z,99528.60
2022-10-18T17:46:21.097Z,99519.80
2022-10-18T17:48:47.679Z,99517.60
2022-10-18T17:51:17.208Z,99518.00
2022-10-18T17:53:44.597Z,99524.00
2022-10-18T17:56:12.886Z,99532.00
2022-10-18T17:58:39.889Z,99533.60
2022-10-18T18:01:17.897Z,99539.60
2022-10-18T18:03:44.916Z,99541.60
2022-10-18T18:06:30.807Z,99546.00
2022-10-18T18:09:07.303Z,99542.00
2022-10-18T18:11:36.910Z,99539.40
2022-10-18T18:14:09.073Z,99539.80
2022-10-18T18:16:39.425Z,99545.00
2022-10-18T18:19:09.954Z,99557.00
2022-10-18T18:21:37.825Z,99562.20
2022-10-18T18:24:04.630Z,99565.60
2022-10-18T18:26:36.047Z,99564.00
2022-10-18T18:31:38.875Z,99561.20
2022-10-18T18:34:06.751Z,99561.80
2022-10-18T18:36:33.577Z,99563.20
2022-10-18T18:39:00.107Z,99549.20
2022-10-18T18:41:28.723Z,99545.60
2022-10-18T18:44:02.649Z,99557.60
2022-10-18T18:46:34.187Z,99566.80
2022-10-18T18:49:00.657Z,99571.40
2022-10-18T18:51:28.929Z,99568.60
2022-10-18T18:53:55.381Z,99578.80
2022-10-18T18:56:25.639Z,99574.80
2022-10-18T18:58:53.500Z,99571.00
2022-10-18T19:01:28.199Z,99566.40
2022-10-18T19:03:56.752Z,99567.80
2022-10-18T19:06:27.746Z,99578.40
2022-10-18T19:09:00.630Z,99584.80
2022-10-18T19:11:32.529Z,99592.00
2022-10-18T19:14:00.366Z,99594.80
2022-10-18T19:16:31.981Z,99596.40
2022-10-18T19:19:12.993Z,99594.20
2022-10-18T19:21:46.261Z,99585.40
2022-10-18T19:24:13.907Z,99583.40
2022-10-18T19:26:49.925Z,99585.00
2022-10-18T19:29:29.919Z,99579.40
2022-10-18T19:32:00.162Z,99582.00
2022-10-18T19:34:28.977Z,99587.00
2022-10-18T19:36:55.910Z,99581.20
2022-10-18T19:39:25.890Z,99572.40
2022-10-18T19:41:56.126Z,99576.20
2022-10-18T19:44:25.069Z,99583.00
2022-10-18T19:46:51.646Z,99584.60
2022-10-18T19:49:18.381Z,99590.80
2022-10-18T19:51:45.145Z,99584.60
2022-10-18T19:54:14.254Z,99581.20
2022-10-18T19:56:41.835Z,99582.60
2022-10-18T19:59:11.093Z,99583.60
2022-10-18T20:01:37.859Z,99577.60
2022-10-18T20:04:04.872Z,99576.00
2022-10-18T20:06:32.295Z,99575.00
2022-10-18T20:08:58.781Z,99576.00
2022-10-18T20:11:28.632Z,99569.80
2022-10-18T20:13:56.492Z,99569.40
2022-10-18T20:16:28.605Z,99569.60
2022-10-18T20:19:01.679Z,99571.80
2022-10-18T20:21:31.507Z,99572.60
2022-10-18T20:23:58.018Z,99573.40
2022-10-18T20:26:25.684Z,99574.60
2022-10-18T20:28:58.139Z,99570.00
2022-10-18T20:31:30.804Z,99574.60
2022-10-18T20:34:01.527Z,99573.00
2022-10-18T20:36:31.435Z,99570.60
2022-10-18T20:38:58.803Z,99576.40
2022-10-18T20:41:29.380Z,99578.40
2022-10-18T20:44:00.472Z,99579.60
2022-10-18T20:46:31.691Z,99584.00
2022-10-18T20:48:58.419Z,99577.80
2022-10-18T20:51:25.616Z,99577.00
2022-10-18T20:53:53.582Z,99578.20
2022-10-18T20:56:23.810Z,99579.60
2022-10-18T20:58:53.812Z,99582.40
2022-10-18T21:01:30.076Z,99583.00
2022-10-18T21:04:00.702Z,99586.40
2022-10-18T21:06:42.531Z,99586.20
2022-10-18T21:09:17.954Z,99589.80
2022-10-18T21:11:51.345Z,99590.60
2022-10-18T21:14:20.945Z,99597.80
2022-10-18T21:16:49.630Z,99596.40
2022-10-18T21:19:21.637Z,99596.40
2022-10-18T21:21:52.577Z,99591.00
2022-10-18T21:24:21.122Z,99594.20
2022-10-18T21:26:48.260Z,99589.40
2022-10-18T21:29:20.756Z,99583.40
2022-10-18T21:31:48.611Z,99578.00
2022-10-18T21:34:17.417Z,99577.40
2022-10-18T21:36:46.840Z,99572.40
2022-10-18T21:39:20.345Z,99576.00
2022-10-18T21:41:47.373Z,99571.80
2022-10-18T21:44:14.762Z,99575.80
2022-10-18T21:46:43.103Z,99574.40
2022-10-18T21:49:10.964Z,99581.00
2022-10-18T21:51:37.930Z,99579.80
2022-10-18T21:54:07.088Z,99582.60
2022-10-18T21:56:35.386Z,99577.40
2022-10-18T21:59:02.689Z,99579.00
2022-10-18T22:01:35.874Z,99577.00
2022-10-18T22:04:07.445Z,99574.40
2022-10-18T22:06:36.536Z,99570.60
2022-10-18T22:09:08.422Z,99564.60
2022-10-18T22:11:45.541Z,99572.00
2022-10-18T22:14:12.387Z,99571.20
2022-10-18T22:16:38.830Z,99564.20
2022-10-18T22:19:06.763Z,99561.40
2022-10-18T22:21:33.453Z,99560.00
2022-10-18T22:24:04.829Z,99549.80
2022-10-18T22:26:39.936Z,99554.80
2022-10-18T22:29:17.550Z,99555.00
2022-10-18T22:31:48.911Z,99563.00
2022-10-18T22:34:22.721Z,99557.60
2022-10-18T22:36:50.075Z,99562.80
2022-10-18T22:39:17.753Z,99557.40
2022-10-18T22:41:45.148Z,99549.60
2022-10-18T22:44:13.494Z,99550.00
2022-10-18T22:46:41.865Z,99552.40
2022-10-18T22:49:08.987Z,99548.80
2022-10-18T22:54:07.300Z,99547.80
2022-10-18T22:56:33.712Z,99546.20
2022-10-18T22:59:00.266Z,99549.40
2022-10-18T23:01:26.808Z,99543.80
2022-10-18T23:03:58.821Z,99544.80
2022-10-18T23:06:32.730Z,99547.20
2022-10-18T23:09:02.504Z,99549.60
2022-10-18T23:11:29.490Z,99543.60
2022-10-18T23:13:56.411Z,99545.80
2022-10-18T23:16:23.862Z,99543.60
2022-10-18T23:18:53.844Z,99551.20
2022-10-18T23:21:24.074Z,99549.20
2022-10-18T23:23:52.553Z,99546.20
2022-10-18T23:26:23.237Z,99549.20
2022-10-18T23:28:51.937Z,99545.20
2022-10-18T23:31:28.758Z,99542.60
2022-10-18T23:33:58.271Z,99542.80
2022-10-18T23:36:25.361Z,99542.20
2022-10-18T23:38:52.162Z,99540.80
2022-10-18T23:41:19.480Z,99546.00
2022-10-18T23:43:46.875Z,99540.00
2022-10-18T23:46:16.376Z,99543.20
2022-10-18T23:48:43.300Z,99548.80
2022-10-18T23:51:10.444Z,99544.20
2022-10-18T23:53:37.802Z,99547.40
2022-10-18T23:56:09.404Z,99543.60
2022-10-18T23:58:37.292Z,99544.80
